Terminal Aerodrome Forecast
Issued by NWS Flagstaff, AZ

Home | Current Version | Previous Version | Text Only | Print | Product List | Glossary On
Versions: 1 2 3 4 5 6 7 8 9 10 11 12 13
000
FTUS45 KFGZ 200541
TAFFLG
TAF
KFLG 200541Z 2006/2106 23008KT P6SM FEW040 SCT200
     FM201000 21011KT P6SM SCT030 BKN050
     FM201300 22014KT P6SM VCSH SCT020 OVC040
      TEMPO 2013/2016 3SM -SHSN OVC012
     FM201600 22015G25KT 1SM -SHSN OVC010
     FM210000 22011KT 2SM -SHSN OVC010=

USA.gov is the U.S. government's official web portal to all federal, state and local government web resources and services.